sensor_id;sensor_type;location;lat;lon;timestamp;pressure;altitude;pressure_sealevel;temperature
20103;BMP180;10210;52.284;9.892;2022-12-07T00:01:32;100297.00;;;7.90
20103;BMP180;10210;52.284;9.892;2022-12-07T00:04:00;100304.00;;;7.90
20103;BMP180;10210;52.284;9.892;2022-12-07T00:06:35;100289.00;;;7.90
20103;BMP180;10210;52.284;9.892;2022-12-07T00:09:03;100288.00;;;7.90
20103;BMP180;10210;52.284;9.892;2022-12-07T00:11:29;100286.00;;;8.00
20103;BMP180;10210;52.284;9.892;2022-12-07T00:14:00;100288.00;;;8.00
20103;BMP180;10210;52.284;9.892;2022-12-07T00:16:31;100284.00;;;8.00
20103;BMP180;10210;52.284;9.892;2022-12-07T00:18:57;100263.00;;;8.00
20103;BMP180;10210;52.284;9.892;2022-12-07T00:21:27;100271.00;;;8.00
20103;BMP180;10210;52.284;9.892;2022-12-07T00:23:55;100273.00;;;8.00
20103;BMP180;10210;52.284;9.892;2022-12-07T00:26:37;100264.00;;;8.00
20103;BMP180;10210;52.284;9.892;2022-12-07T00:29:16;100261.00;;;8.00
20103;BMP180;10210;52.284;9.892;2022-12-07T00:31:42;100263.00;;;8.00
20103;BMP180;10210;52.284;9.892;2022-12-07T00:34:16;100265.00;;;8.00
20103;BMP180;10210;52.284;9.892;2022-12-07T00:36:42;100262.00;;;8.00
20103;BMP180;10210;52.284;9.892;2022-12-07T00:39:08;100261.00;;;8.00
20103;BMP180;10210;52.284;9.892;2022-12-07T00:41:34;100261.00;;;8.00
20103;BMP180;10210;52.284;9.892;2022-12-07T00:44:00;100257.00;;;8.10
20103;BMP180;10210;52.284;9.892;2022-12-07T00:46:27;100248.00;;;8.10
20103;BMP180;10210;52.284;9.892;2022-12-07T00:48:53;100258.00;;;8.10
20103;BMP180;10210;52.284;9.892;2022-12-07T00:51:22;100248.00;;;8.10
20103;BMP180;10210;52.284;9.892;2022-12-07T00:53:48;100244.00;;;8.10
20103;BMP180;10210;52.284;9.892;2022-12-07T00:56:17;100243.00;;;8.10
20103;BMP180;10210;52.284;9.892;2022-12-07T00:58:43;100239.00;;;8.10
20103;BMP180;10210;52.284;9.892;2022-12-07T01:01:10;100245.00;;;8.10
20103;BMP180;10210;52.284;9.892;2022-12-07T01:03:37;100230.00;;;8.20
20103;BMP180;10210;52.284;9.892;2022-12-07T01:06:04;100234.00;;;8.20
20103;BMP180;10210;52.284;9.892;2022-12-07T01:08:30;100242.00;;;8.20
20103;BMP180;10210;52.284;9.892;2022-12-07T01:11:05;100233.00;;;8.20
20103;BMP180;10210;52.284;9.892;2022-12-07T01:13:33;100237.00;;;8.20
20103;BMP180;10210;52.284;9.892;2022-12-07T01:16:03;100232.00;;;8.20
20103;BMP180;10210;52.284;9.892;2022-12-07T01:18:32;100242.00;;;8.30
20103;BMP180;10210;52.284;9.892;2022-12-07T01:21:10;100235.00;;;8.30
20103;BMP180;10210;52.284;9.892;2022-12-07T01:23:37;100233.00;;;8.30
20103;BMP180;10210;52.284;9.892;2022-12-07T01:26:07;100238.00;;;8.30
20103;BMP180;10210;52.284;9.892;2022-12-07T01:28:34;100235.00;;;8.30
20103;BMP180;10210;52.284;9.892;2022-12-07T01:31:04;100237.00;;;8.30
20103;BMP180;10210;52.284;9.892;2022-12-07T01:33:34;100235.00;;;8.30
20103;BMP180;10210;52.284;9.892;2022-12-07T01:36:16;100223.00;;;8.30
20103;BMP180;10210;52.284;9.892;2022-12-07T01:38:42;100224.00;;;8.30
20103;BMP180;10210;52.284;9.892;2022-12-07T01:41:09;100230.00;;;8.40
20103;BMP180;10210;52.284;9.892;2022-12-07T01:43:35;100229.00;;;8.40
20103;BMP180;10210;52.284;9.892;2022-12-07T01:46:02;100230.00;;;8.40
20103;BMP180;10210;52.284;9.892;2022-12-07T01:48:40;100227.00;;;8.40
20103;BMP180;10210;52.284;9.892;2022-12-07T01:51:10;100228.00;;;8.40
20103;BMP180;10210;52.284;9.892;2022-12-07T01:53:43;100232.00;;;8.40
20103;BMP180;10210;52.284;9.892;2022-12-07T01:56:17;100229.00;;;8.40
20103;BMP180;10210;52.284;9.892;2022-12-07T01:58:44;100226.00;;;8.40
20103;BMP180;10210;52.284;9.892;2022-12-07T02:01:11;100223.00;;;8.40
20103;BMP180;10210;52.284;9.892;2022-12-07T02:03:43;100225.00;;;8.40
20103;BMP180;10210;52.284;9.892;2022-12-07T02:06:15;100208.00;;;8.40
20103;BMP180;10210;52.284;9.892;2022-12-07T02:08:42;100214.00;;;8.40
20103;BMP180;10210;52.284;9.892;2022-12-07T02:11:09;100209.00;;;8.40
20103;BMP180;10210;52.284;9.892;2022-12-07T02:13:39;100203.00;;;8.40
20103;BMP180;10210;52.284;9.892;2022-12-07T02:19:31;100217.00;;;8.40
20103;BMP180;10210;52.284;9.892;2022-12-07T02:25:58;100215.00;;;8.30
20103;BMP180;10210;52.284;9.892;2022-12-07T02:28:36;100203.00;;;8.30
20103;BMP180;10210;52.284;9.892;2022-12-07T02:31:10;100203.00;;;8.30
20103;BMP180;10210;52.284;9.892;2022-12-07T02:33:46;100205.00;;;8.40
20103;BMP180;10210;52.284;9.892;2022-12-07T02:36:26;100196.00;;;8.40
20103;BMP180;10210;52.284;9.892;2022-12-07T02:39:07;100188.00;;;8.30
20103;BMP180;10210;52.284;9.892;2022-12-07T02:41:44;100186.00;;;8.40
20103;BMP180;10210;52.284;9.892;2022-12-07T02:44:17;100188.00;;;8.40
20103;BMP180;10210;52.284;9.892;2022-12-07T02:47:05;100181.00;;;8.40
20103;BMP180;10210;52.284;9.892;2022-12-07T02:49:35;100182.00;;;8.40
20103;BMP180;10210;52.284;9.892;2022-12-07T02:52:01;100183.00;;;8.40
20103;BMP180;10210;52.284;9.892;2022-12-07T02:54:27;100184.00;;;8.40
20103;BMP180;10210;52.284;9.892;2022-12-07T02:57:04;100184.00;;;8.40
20103;BMP180;10210;52.284;9.892;2022-12-07T03:00:08;100183.00;;;8.30
20103;BMP180;10210;52.284;9.892;2022-12-07T03:03:00;100191.00;;;8.20
20103;BMP180;10210;52.284;9.892;2022-12-07T03:08:39;100177.00;;;8.20
20103;BMP180;10210;52.284;9.892;2022-12-07T03:11:18;100177.00;;;8.20
20103;BMP180;10210;52.284;9.892;2022-12-07T03:13:55;100182.00;;;8.20
20103;BMP180;10210;52.284;9.892;2022-12-07T03:16:35;100180.00;;;8.10
20103;BMP180;10210;52.284;9.892;2022-12-07T03:19:18;100172.00;;;8.10
20103;BMP180;10210;52.284;9.892;2022-12-07T03:22:01;100174.00;;;8.10
20103;BMP180;10210;52.284;9.892;2022-12-07T03:24:37;100174.00;;;8.10
20103;BMP180;10210;52.284;9.892;2022-12-07T03:27:16;100171.00;;;8.10
20103;BMP180;10210;52.284;9.892;2022-12-07T03:30:07;100165.00;;;8.10
20103;BMP180;10210;52.284;9.892;2022-12-07T03:32:50;100167.00;;;8.10
20103;BMP180;10210;52.284;9.892;2022-12-07T03:35:43;100161.00;;;8.10
20103;BMP180;10210;52.284;9.892;2022-12-07T03:38:24;100155.00;;;8.10
20103;BMP180;10210;52.284;9.892;2022-12-07T03:41:13;100164.00;;;8.10
20103;BMP180;10210;52.284;9.892;2022-12-07T03:43:41;100156.00;;;8.10
20103;BMP180;10210;52.284;9.892;2022-12-07T03:49:07;100164.00;;;8.10
20103;BMP180;10210;52.284;9.892;2022-12-07T03:51:49;100158.00;;;8.10
20103;BMP180;10210;52.284;9.892;2022-12-07T03:54:26;100166.00;;;8.10
20103;BMP180;10210;52.284;9.892;2022-12-07T03:56:53;100169.00;;;8.10
20103;BMP180;10210;52.284;9.892;2022-12-07T03:59:20;100161.00;;;8.10
20103;BMP180;10210;52.284;9.892;2022-12-07T04:01:56;100171.00;;;8.10
20103;BMP180;10210;52.284;9.892;2022-12-07T04:04:24;100164.00;;;8.10
20103;BMP180;10210;52.284;9.892;2022-12-07T04:06:50;100168.00;;;8.10
20103;BMP180;10210;52.284;9.892;2022-12-07T04:09:16;100170.00;;;8.10
20103;BMP180;10210;52.284;9.892;2022-12-07T04:11:42;100171.00;;;8.10
20103;BMP180;10210;52.284;9.892;2022-12-07T04:14:08;100170.00;;;8.10
20103;BMP180;10210;52.284;9.892;2022-12-07T04:16:49;100177.00;;;8.10
20103;BMP180;10210;52.284;9.892;2022-12-07T04:19:16;100171.00;;;8.10
20103;BMP180;10210;52.284;9.892;2022-12-07T04:21:42;100184.00;;;8.10
20103;BMP180;10210;52.284;9.892;2022-12-07T04:24:09;100178.00;;;8.10
20103;BMP180;10210;52.284;9.892;2022-12-07T04:26:35;100173.00;;;8.10
20103;BMP180;10210;52.284;9.892;2022-12-07T04:29:01;100170.00;;;8.10
20103;BMP180;10210;52.284;9.892;2022-12-07T04:31:27;100174.00;;;8.10
20103;BMP180;10210;52.284;9.892;2022-12-07T04:33:53;100176.00;;;8.00
20103;BMP180;10210;52.284;9.892;2022-12-07T04:36:18;100176.00;;;8.00
20103;BMP180;10210;52.284;9.892;2022-12-07T04:38:45;100169.00;;;8.00
20103;BMP180;10210;52.284;9.892;2022-12-07T04:41:11;100175.00;;;8.00
20103;BMP180;10210;52.284;9.892;2022-12-07T04:43:37;100171.00;;;8.00
20103;BMP180;10210;52.284;9.892;2022-12-07T04:46:02;100178.00;;;8.00
20103;BMP180;10210;52.284;9.892;2022-12-07T04:48:29;100163.00;;;8.00
20103;BMP180;10210;52.284;9.892;2022-12-07T04:50:54;100169.00;;;8.00
20103;BMP180;10210;52.284;9.892;2022-12-07T04:53:20;100166.00;;;8.00
20103;BMP180;10210;52.284;9.892;2022-12-07T04:55:46;100160.00;;;8.00
20103;BMP180;10210;52.284;9.892;2022-12-07T04:58:13;100156.00;;;8.00
20103;BMP180;10210;52.284;9.892;2022-12-07T05:00:39;100151.00;;;8.00
20103;BMP180;10210;52.284;9.892;2022-12-07T05:03:06;100156.00;;;8.10
20103;BMP180;10210;52.284;9.892;2022-12-07T05:05:31;100163.00;;;8.10
20103;BMP180;10210;52.284;9.892;2022-12-07T05:07:57;100159.00;;;8.10
20103;BMP180;10210;52.284;9.892;2022-12-07T05:10:23;100161.00;;;8.10
20103;BMP180;10210;52.284;9.892;2022-12-07T05:12:48;100160.00;;;8.10
20103;BMP180;10210;52.284;9.892;2022-12-07T05:15:15;100160.00;;;8.10
20103;BMP180;10210;52.284;9.892;2022-12-07T05:17:41;100159.00;;;8.10
20103;BMP180;10210;52.284;9.892;2022-12-07T05:20:09;100154.00;;;8.10
20103;BMP180;10210;52.284;9.892;2022-12-07T05:22:35;100155.00;;;8.10
20103;BMP180;10210;52.284;9.892;2022-12-07T05:25:01;100154.00;;;8.10
20103;BMP180;10210;52.284;9.892;2022-12-07T05:27:27;100161.00;;;8.10
20103;BMP180;10210;52.284;9.892;2022-12-07T05:29:53;100157.00;;;8.10
20103;BMP180;10210;52.284;9.892;2022-12-07T05:32:18;100156.00;;;8.10
20103;BMP180;10210;52.284;9.892;2022-12-07T05:34:44;100159.00;;;8.10
20103;BMP180;10210;52.284;9.892;2022-12-07T05:37:10;100152.00;;;8.10
20103;BMP180;10210;52.284;9.892;2022-12-07T05:39:37;100152.00;;;8.10
20103;BMP180;10210;52.284;9.892;2022-12-07T05:42:08;100157.00;;;8.10
20103;BMP180;10210;52.284;9.892;2022-12-07T05:44:44;100156.00;;;8.00
20103;BMP180;10210;52.284;9.892;2022-12-07T05:47:12;100145.00;;;8.00
20103;BMP180;10210;52.284;9.892;2022-12-07T05:49:38;100146.00;;;8.00
20103;BMP180;10210;52.284;9.892;2022-12-07T05:52:04;100151.00;;;8.00
20103;BMP180;10210;52.284;9.892;2022-12-07T05:54:30;100147.00;;;8.00
20103;BMP180;10210;52.284;9.892;2022-12-07T05:56:56;100150.00;;;7.90
20103;BMP180;10210;52.284;9.892;2022-12-07T05:59:22;100154.00;;;7.90
20103;BMP180;10210;52.284;9.892;2022-12-07T06:04:28;100141.00;;;7.90
20103;BMP180;10210;52.284;9.892;2022-12-07T06:06:54;100156.00;;;7.90
20103;BMP180;10210;52.284;9.892;2022-12-07T06:09:23;100147.00;;;7.90
20103;BMP180;10210;52.284;9.892;2022-12-07T06:11:49;100149.00;;;7.90
20103;BMP180;10210;52.284;9.892;2022-12-07T06:14:33;100164.00;;;7.90
20103;BMP180;10210;52.284;9.892;2022-12-07T06:16:59;100158.00;;;7.90
20103;BMP180;10210;52.284;9.892;2022-12-07T06:19:25;100158.00;;;7.90
20103;BMP180;10210;52.284;9.892;2022-12-07T06:21:51;100156.00;;;7.90
20103;BMP180;10210;52.284;9.892;2022-12-07T06:24:18;100162.00;;;7.90
20103;BMP180;10210;52.284;9.892;2022-12-07T06:26:44;100157.00;;;7.90
20103;BMP180;10210;52.284;9.892;2022-12-07T06:29:11;100162.00;;;7.90
20103;BMP180;10210;52.284;9.892;2022-12-07T06:31:38;100156.00;;;7.90
20103;BMP180;10210;52.284;9.892;2022-12-07T06:34:09;100163.00;;;7.90
20103;BMP180;10210;52.284;9.892;2022-12-07T06:36:35;100160.00;;;7.90
20103;BMP180;10210;52.284;9.892;2022-12-07T06:39:00;100158.00;;;7.90
20103;BMP180;10210;52.284;9.892;2022-12-07T06:41:26;100164.00;;;7.90
20103;BMP180;10210;52.284;9.892;2022-12-07T06:43:52;100161.00;;;7.90
20103;BMP180;10210;52.284;9.892;2022-12-07T06:46:18;100165.00;;;7.90
20103;BMP180;10210;52.284;9.892;2022-12-07T06:48:44;100166.00;;;7.90
20103;BMP180;10210;52.284;9.892;2022-12-07T06:51:10;100161.00;;;7.90
20103;BMP180;10210;52.284;9.892;2022-12-07T06:53:36;100158.00;;;7.90
20103;BMP180;10210;52.284;9.892;2022-12-07T06:56:04;100165.00;;;7.90
20103;BMP180;10210;52.284;9.892;2022-12-07T06:58:30;100151.00;;;7.90
20103;BMP180;10210;52.284;9.892;2022-12-07T07:00:56;100159.00;;;7.90
20103;BMP180;10210;52.284;9.892;2022-12-07T07:03:22;100163.00;;;7.90
20103;BMP180;10210;52.284;9.892;2022-12-07T07:05:48;100163.00;;;7.90
20103;BMP180;10210;52.284;9.892;2022-12-07T07:08:14;100160.00;;;7.90
20103;BMP180;10210;52.284;9.892;2022-12-07T07:10:40;100155.00;;;7.90
20103;BMP180;10210;52.284;9.892;2022-12-07T07:13:08;100161.00;;;7.90
20103;BMP180;10210;52.284;9.892;2022-12-07T07:15:34;100171.00;;;7.90
20103;BMP180;10210;52.284;9.892;2022-12-07T07:18:00;100165.00;;;7.90
20103;BMP180;10210;52.284;9.892;2022-12-07T07:20:26;100153.00;;;7.90
20103;BMP180;10210;52.284;9.892;2022-12-07T07:22:56;100167.00;;;7.90
20103;BMP180;10210;52.284;9.892;2022-12-07T07:25:22;100167.00;;;7.90
20103;BMP180;10210;52.284;9.892;2022-12-07T07:27:48;100174.00;;;7.80
20103;BMP180;10210;52.284;9.892;2022-12-07T07:30:13;100183.00;;;7.80
20103;BMP180;10210;52.284;9.892;2022-12-07T07:32:39;100173.00;;;7.80
20103;BMP180;10210;52.284;9.892;2022-12-07T07:35:05;100176.00;;;7.80
20103;BMP180;10210;52.284;9.892;2022-12-07T07:37:31;100180.00;;;7.80
20103;BMP180;10210;52.284;9.892;2022-12-07T07:39:57;100182.00;;;7.80
20103;BMP180;10210;52.284;9.892;2022-12-07T07:42:23;100174.00;;;7.80
20103;BMP180;10210;52.284;9.892;2022-12-07T07:44:48;100182.00;;;7.80
20103;BMP180;10210;52.284;9.892;2022-12-07T07:47:14;100181.00;;;7.80
20103;BMP180;10210;52.284;9.892;2022-12-07T07:49:40;100192.00;;;7.80
20103;BMP180;10210;52.284;9.892;2022-12-07T07:52:06;100199.00;;;7.80
20103;BMP180;10210;52.284;9.892;2022-12-07T07:54:32;100191.00;;;7.80
20103;BMP180;10210;52.284;9.892;2022-12-07T07:56:57;100188.00;;;7.80
20103;BMP180;10210;52.284;9.892;2022-12-07T07:59:23;100191.00;;;7.80
20103;BMP180;10210;52.284;9.892;2022-12-07T08:01:50;100187.00;;;7.80
20103;BMP180;10210;52.284;9.892;2022-12-07T08:04:16;100197.00;;;7.80
20103;BMP180;10210;52.284;9.892;2022-12-07T08:06:42;100194.00;;;7.80
20103;BMP180;10210;52.284;9.892;2022-12-07T08:09:09;100189.00;;;7.80
20103;BMP180;10210;52.284;9.892;2022-12-07T08:11:35;100199.00;;;7.80
20103;BMP180;10210;52.284;9.892;2022-12-07T08:14:02;100197.00;;;7.80
20103;BMP180;10210;52.284;9.892;2022-12-07T08:16:28;100194.00;;;7.80
20103;BMP180;10210;52.284;9.892;2022-12-07T08:18:53;100198.00;;;7.80
20103;BMP180;10210;52.284;9.892;2022-12-07T08:21:19;100197.00;;;7.80
20103;BMP180;10210;52.284;9.892;2022-12-07T08:23:45;100198.00;;;7.80
20103;BMP180;10210;52.284;9.892;2022-12-07T08:26:14;100202.00;;;7.80
20103;BMP180;10210;52.284;9.892;2022-12-07T08:28:40;100189.00;;;7.80
20103;BMP180;10210;52.284;9.892;2022-12-07T08:31:15;100188.00;;;7.90
20103;BMP180;10210;52.284;9.892;2022-12-07T08:33:42;100185.00;;;7.90
20103;BMP180;10210;52.284;9.892;2022-12-07T08:36:11;100184.00;;;7.90
20103;BMP180;10210;52.284;9.892;2022-12-07T08:38:39;100189.00;;;7.90
20103;BMP180;10210;52.284;9.892;2022-12-07T08:41:08;100183.00;;;7.90
20103;BMP180;10210;52.284;9.892;2022-12-07T08:43:35;100197.00;;;8.00
20103;BMP180;10210;52.284;9.892;2022-12-07T08:46:10;100195.00;;;8.00
20103;BMP180;10210;52.284;9.892;2022-12-07T08:48:44;100199.00;;;8.00
20103;BMP180;10210;52.284;9.892;2022-12-07T08:51:11;100187.00;;;8.00
20103;BMP180;10210;52.284;9.892;2022-12-07T08:53:38;100205.00;;;8.00
20103;BMP180;10210;52.284;9.892;2022-12-07T08:56:05;100201.00;;;8.00
20103;BMP180;10210;52.284;9.892;2022-12-07T08:58:33;100211.00;;;8.00
20103;BMP180;10210;52.284;9.892;2022-12-07T09:00:59;100206.00;;;8.00
20103;BMP180;10210;52.284;9.892;2022-12-07T09:03:25;100203.00;;;8.10
20103;BMP180;10210;52.284;9.892;2022-12-07T09:05:52;100208.00;;;8.10
20103;BMP180;10210;52.284;9.892;2022-12-07T09:08:19;100203.00;;;8.10
20103;BMP180;10210;52.284;9.892;2022-12-07T09:10:45;100214.00;;;8.10
20103;BMP180;10210;52.284;9.892;2022-12-07T09:13:11;100216.00;;;8.10
20103;BMP180;10210;52.284;9.892;2022-12-07T09:15:37;100213.00;;;8.10
20103;BMP180;10210;52.284;9.892;2022-12-07T09:18:03;100208.00;;;8.10
20103;BMP180;10210;52.284;9.892;2022-12-07T09:20:28;100209.00;;;8.10
20103;BMP180;10210;52.284;9.892;2022-12-07T09:22:54;100207.00;;;8.10
20103;BMP180;10210;52.284;9.892;2022-12-07T09:25:19;100211.00;;;8.10
20103;BMP180;10210;52.284;9.892;2022-12-07T09:27:45;100207.00;;;8.10
20103;BMP180;10210;52.284;9.892;2022-12-07T09:30:11;100209.00;;;8.10
20103;BMP180;10210;52.284;9.892;2022-12-07T09:32:37;100200.00;;;8.10
20103;BMP180;10210;52.284;9.892;2022-12-07T09:35:02;100198.00;;;8.10
20103;BMP180;10210;52.284;9.892;2022-12-07T09:37:28;100205.00;;;8.20
20103;BMP180;10210;52.284;9.892;2022-12-07T09:39:54;100204.00;;;8.20
20103;BMP180;10210;52.284;9.892;2022-12-07T09:44:58;100201.00;;;8.20
20103;BMP180;10210;52.284;9.892;2022-12-07T09:47:25;100196.00;;;8.20
20103;BMP180;10210;52.284;9.892;2022-12-07T09:49:54;100193.00;;;8.20
20103;BMP180;10210;52.284;9.892;2022-12-07T09:52:28;100194.00;;;8.20
20103;BMP180;10210;52.284;9.892;2022-12-07T09:54:54;100192.00;;;8.20
20103;BMP180;10210;52.284;9.892;2022-12-07T09:57:31;100193.00;;;8.20
20103;BMP180;10210;52.284;9.892;2022-12-07T10:00:03;100196.00;;;8.20
20103;BMP180;10210;52.284;9.892;2022-12-07T10:02:39;100200.00;;;8.30
20103;BMP180;10210;52.284;9.892;2022-12-07T10:05:18;100199.00;;;8.30
20103;BMP180;10210;52.284;9.892;2022-12-07T10:07:45;100199.00;;;8.30
20103;BMP180;10210;52.284;9.892;2022-12-07T10:10:32;100196.00;;;8.30
20103;BMP180;10210;52.284;9.892;2022-12-07T10:13:13;100178.00;;;8.30
20103;BMP180;10210;52.284;9.892;2022-12-07T10:18:36;100183.00;;;8.40
20103;BMP180;10210;52.284;9.892;2022-12-07T10:21:11;100188.00;;;8.50
20103;BMP180;10210;52.284;9.892;2022-12-07T10:23:59;100187.00;;;8.50
20103;BMP180;10210;52.284;9.892;2022-12-07T10:26:34;100195.00;;;8.60
20103;BMP180;10210;52.284;9.892;2022-12-07T10:29:22;100184.00;;;8.60
20103;BMP180;10210;52.284;9.892;2022-12-07T10:32:00;100186.00;;;8.70
20103;BMP180;10210;52.284;9.892;2022-12-07T10:34:33;100192.00;;;8.70
20103;BMP180;10210;52.284;9.892;2022-12-07T10:39:56;100177.00;;;8.60
20103;BMP180;10210;52.284;9.892;2022-12-07T10:42:27;100194.00;;;8.60
20103;BMP180;10210;52.284;9.892;2022-12-07T10:48:21;100187.00;;;8.50
20103;BMP180;10210;52.284;9.892;2022-12-07T10:53:57;100184.00;;;8.50
20103;BMP180;10210;52.284;9.892;2022-12-07T11:00:11;100172.00;;;8.40
20103;BMP180;10210;52.284;9.892;2022-12-07T11:06:16;100170.00;;;8.50
20103;BMP180;10210;52.284;9.892;2022-12-07T11:09:00;100172.00;;;8.50
20103;BMP180;10210;52.284;9.892;2022-12-07T11:11:38;100162.00;;;8.60
20103;BMP180;10210;52.284;9.892;2022-12-07T11:14:35;100161.00;;;8.50
20103;BMP180;10210;52.284;9.892;2022-12-07T11:23:46;100159.00;;;8.50
20103;BMP180;10210;52.284;9.892;2022-12-07T11:29:49;100176.00;;;8.40
20103;BMP180;10210;52.284;9.892;2022-12-07T11:38:15;100167.00;;;8.30
20103;BMP180;10210;52.284;9.892;2022-12-07T11:40:59;100187.00;;;8.20
20103;BMP180;10210;52.284;9.892;2022-12-07T11:46:58;100172.00;;;8.00
20103;BMP180;10210;52.284;9.892;2022-12-07T11:52:42;100160.00;;;7.80
20103;BMP180;10210;52.284;9.892;2022-12-07T12:06:42;100118.00;;;7.50
20103;BMP180;10210;52.284;9.892;2022-12-07T12:09:29;100133.00;;;7.50
20103;BMP180;10210;52.284;9.892;2022-12-07T12:17:50;100122.00;;;7.70
20103;BMP180;10210;52.284;9.892;2022-12-07T12:23:24;100117.00;;;7.80
20103;BMP180;10210;52.284;9.892;2022-12-07T12:25:59;100120.00;;;7.80
20103;BMP180;10210;52.284;9.892;2022-12-07T12:28:58;100120.00;;;7.80
20103;BMP180;10210;52.284;9.892;2022-12-07T12:31:40;100130.00;;;7.90
20103;BMP180;10210;52.284;9.892;2022-12-07T12:36:55;100112.00;;;8.00
20103;BMP180;10210;52.284;9.892;2022-12-07T12:39:22;100120.00;;;8.10
20103;BMP180;10210;52.284;9.892;2022-12-07T12:41:56;100109.00;;;8.10
20103;BMP180;10210;52.284;9.892;2022-12-07T12:46:55;100106.00;;;8.20
20103;BMP180;10210;52.284;9.892;2022-12-07T12:51:59;100097.00;;;8.30
20103;BMP180;10210;52.284;9.892;2022-12-07T12:54:31;100089.00;;;8.30
20103;BMP180;10210;52.284;9.892;2022-12-07T12:57:22;100082.00;;;8.30
20103;BMP180;10210;52.284;9.892;2022-12-07T13:02:32;100086.00;;;8.30
20103;BMP180;10210;52.284;9.892;2022-12-07T13:15:48;100087.00;;;8.40
20103;BMP180;10210;52.284;9.892;2022-12-07T13:26:36;100082.00;;;8.40
20103;BMP180;10210;52.284;9.892;2022-12-07T13:29:20;100075.00;;;8.50
20103;BMP180;10210;52.284;9.892;2022-12-07T13:31:52;100085.00;;;8.50
20103;BMP180;10210;52.284;9.892;2022-12-07T13:34:35;100073.00;;;8.50
20103;BMP180;10210;52.284;9.892;2022-12-07T13:37:31;100079.00;;;8.50
20103;BMP180;10210;52.284;9.892;2022-12-07T13:40:01;100077.00;;;8.50
20103;BMP180;10210;52.284;9.892;2022-12-07T13:42:37;100080.00;;;8.50
20103;BMP180;10210;52.284;9.892;2022-12-07T13:45:35;100073.00;;;8.50
20103;BMP180;10210;52.284;9.892;2022-12-07T13:48:51;100067.00;;;8.50
20103;BMP180;10210;52.284;9.892;2022-12-07T13:51:37;100068.00;;;8.50
20103;BMP180;10210;52.284;9.892;2022-12-07T13:54:11;100066.00;;;8.50
20103;BMP180;10210;52.284;9.892;2022-12-07T13:56:38;100066.00;;;8.50
20103;BMP180;10210;52.284;9.892;2022-12-07T13:59:22;100076.00;;;8.60
20103;BMP180;10210;52.284;9.892;2022-12-07T14:01:50;100057.00;;;8.60
20103;BMP180;10210;52.284;9.892;2022-12-07T14:06:55;100053.00;;;8.60
20103;BMP180;10210;52.284;9.892;2022-12-07T14:09:28;100061.00;;;8.60
20103;BMP180;10210;52.284;9.892;2022-12-07T14:11:57;100052.00;;;8.60
20103;BMP180;10210;52.284;9.892;2022-12-07T14:14:30;100046.00;;;8.60
20103;BMP180;10210;52.284;9.892;2022-12-07T14:17:15;100053.00;;;8.60
20103;BMP180;10210;52.284;9.892;2022-12-07T14:19:57;100048.00;;;8.60
20103;BMP180;10210;52.284;9.892;2022-12-07T14:22:30;100048.00;;;9.20
20103;BMP180;10210;52.284;9.892;2022-12-07T14:27:34;100053.00;;;8.80
20103;BMP180;10210;52.284;9.892;2022-12-07T14:30:03;100056.00;;;8.80
20103;BMP180;10210;52.284;9.892;2022-12-07T14:32:30;100050.00;;;8.80
20103;BMP180;10210;52.284;9.892;2022-12-07T14:35:09;100052.00;;;8.70
20103;BMP180;10210;52.284;9.892;2022-12-07T14:37:37;100061.00;;;8.70
20103;BMP180;10210;52.284;9.892;2022-12-07T14:40:05;100048.00;;;8.70
20103;BMP180;10210;52.284;9.892;2022-12-07T14:42:33;100046.00;;;8.70
20103;BMP180;10210;52.284;9.892;2022-12-07T14:45:00;100057.00;;;8.70
20103;BMP180;10210;52.284;9.892;2022-12-07T14:47:26;100066.00;;;8.60
20103;BMP180;10210;52.284;9.892;2022-12-07T14:49:53;100057.00;;;8.60
20103;BMP180;10210;52.284;9.892;2022-12-07T14:52:28;100041.00;;;8.60
20103;BMP180;10210;52.284;9.892;2022-12-07T14:54:55;100053.00;;;8.60
20103;BMP180;10210;52.284;9.892;2022-12-07T14:57:22;100059.00;;;8.60
20103;BMP180;10210;52.284;9.892;2022-12-07T14:59:48;100060.00;;;8.60
20103;BMP180;10210;52.284;9.892;2022-12-07T15:02:15;100067.00;;;8.60
20103;BMP180;10210;52.284;9.892;2022-12-07T15:04:41;100064.00;;;8.60
20103;BMP180;10210;52.284;9.892;2022-12-07T15:07:20;100062.00;;;8.50
20103;BMP180;10210;52.284;9.892;2022-12-07T15:09:49;100076.00;;;8.50
20103;BMP180;10210;52.284;9.892;2022-12-07T15:12:16;100058.00;;;8.50
20103;BMP180;10210;52.284;9.892;2022-12-07T15:14:43;100073.00;;;8.50
20103;BMP180;10210;52.284;9.892;2022-12-07T15:17:11;100076.00;;;8.50
20103;BMP180;10210;52.284;9.892;2022-12-07T15:19:38;100064.00;;;8.50
20103;BMP180;10210;52.284;9.892;2022-12-07T15:22:03;100068.00;;;8.40
20103;BMP180;10210;52.284;9.892;2022-12-07T15:24:29;100080.00;;;8.40
20103;BMP180;10210;52.284;9.892;2022-12-07T15:26:55;100074.00;;;8.40
20103;BMP180;10210;52.284;9.892;2022-12-07T15:29:21;100068.00;;;8.40
20103;BMP180;10210;52.284;9.892;2022-12-07T15:31:51;100064.00;;;8.40
20103;BMP180;10210;52.284;9.892;2022-12-07T15:34:18;100070.00;;;8.40
20103;BMP180;10210;52.284;9.892;2022-12-07T15:36:43;100068.00;;;8.40
20103;BMP180;10210;52.284;9.892;2022-12-07T15:39:09;100065.00;;;8.40
20103;BMP180;10210;52.284;9.892;2022-12-07T15:41:35;100062.00;;;8.40
20103;BMP180;10210;52.284;9.892;2022-12-07T15:44:01;100063.00;;;8.40
20103;BMP180;10210;52.284;9.892;2022-12-07T15:46:45;100058.00;;;8.30
20103;BMP180;10210;52.284;9.892;2022-12-07T15:49:18;100063.00;;;8.30
20103;BMP180;10210;52.284;9.892;2022-12-07T15:51:45;100070.00;;;8.30
20103;BMP180;10210;52.284;9.892;2022-12-07T15:54:20;100068.00;;;8.30
20103;BMP180;10210;52.284;9.892;2022-12-07T15:56:47;100053.00;;;8.30
20103;BMP180;10210;52.284;9.892;2022-12-07T15:59:13;100059.00;;;8.30
20103;BMP180;10210;52.284;9.892;2022-12-07T16:01:39;100054.00;;;8.30
20103;BMP180;10210;52.284;9.892;2022-12-07T16:04:04;100059.00;;;8.30
20103;BMP180;10210;52.284;9.892;2022-12-07T16:06:30;100065.00;;;8.80
20103;BMP180;10210;52.284;9.892;2022-12-07T16:08:56;100053.00;;;8.50
20103;BMP180;10210;52.284;9.892;2022-12-07T16:11:22;100062.00;;;8.50
20103;BMP180;10210;52.284;9.892;2022-12-07T16:13:48;100066.00;;;8.40
20103;BMP180;10210;52.284;9.892;2022-12-07T16:16:16;100065.00;;;8.40
20103;BMP180;10210;52.284;9.892;2022-12-07T16:18:44;100060.00;;;8.40
20103;BMP180;10210;52.284;9.892;2022-12-07T16:21:10;100056.00;;;8.30
20103;BMP180;10210;52.284;9.892;2022-12-07T16:23:35;100053.00;;;8.30